createdAt,value
2022-09-12T00:00:44.618Z,101245.34
2022-09-12T00:03:11.838Z,101239.91
2022-09-12T00:05:47.557Z,101238.19
2022-09-12T00:08:15.057Z,101248.13
2022-09-12T00:10:43.645Z,101245.53
2022-09-12T00:13:11.191Z,101239.28
2022-09-12T00:15:39.674Z,101233.00
2022-09-12T00:18:07.437Z,101237.53
2022-09-12T00:20:34.215Z,101231.19
2022-09-12T00:23:00.844Z,101228.50
2022-09-12T00:25:27.876Z,101230.34
2022-09-12T00:27:54.416Z,101228.56
2022-09-12T00:30:21.222Z,101238.53
2022-09-12T00:32:51.464Z,101231.31
2022-09-12T00:35:18.018Z,101231.28
2022-09-12T00:37:44.614Z,101233.09
2022-09-12T00:40:11.278Z,101231.34
2022-09-12T00:42:38.926Z,101235.00
2022-09-12T00:45:06.262Z,101237.72
2022-09-12T00:47:35.686Z,101232.34
2022-09-12T00:50:12.528Z,101231.47
2022-09-12T00:52:49.857Z,101226.06
2022-09-12T00:55:23.718Z,101205.34
2022-09-12T00:57:56.133Z,101213.50
2022-09-12T01:00:25.341Z,101214.41
2022-09-12T01:02:59.967Z,101204.50
2022-09-12T01:05:29.436Z,101208.09
2022-09-12T01:07:57.710Z,101211.72
2022-09-12T01:10:24.887Z,101217.13
2022-09-12T01:12:51.529Z,101211.72
2022-09-12T01:15:19.157Z,101224.41
2022-09-12T01:18:18.982Z,101222.59
2022-09-12T01:21:00.086Z,101210.88
2022-09-12T01:23:52.909Z,101205.47
2022-09-12T01:26:59.052Z,101209.06
2022-09-12T01:29:57.451Z,101206.41
2022-09-12T01:32:47.424Z,101206.41
2022-09-12T01:35:24.440Z,101204.59
2022-09-12T01:38:00.676Z,101204.59
2022-09-12T01:40:44.774Z,101211.81
2022-09-12T01:43:31.002Z,101210.00
2022-09-12T01:46:33.142Z,101208.22
2022-09-12T01:49:14.521Z,101210.03
2022-09-12T01:52:00.945Z,101209.09
2022-09-12T01:54:38.137Z,101201.91
2022-09-12T01:57:12.872Z,101204.66
2022-09-12T01:59:44.801Z,101197.44
2022-09-12T02:02:28.618Z,101199.25
2022-09-12T02:05:02.799Z,101192.09
2022-09-12T02:07:39.507Z,101189.38
2022-09-12T02:10:13.841Z,101189.41
2022-09-12T02:12:47.928Z,101182.19
2022-09-12T02:15:18.384Z,101183.09
2022-09-12T02:17:49.498Z,101178.59
2022-09-12T02:20:44.347Z,101178.59
2022-09-12T02:23:16.297Z,101170.53
2022-09-12T02:25:46.091Z,101170.53
2022-09-12T02:28:22.028Z,101175.94
2022-09-12T02:31:11.516Z,101178.69
2022-09-12T02:34:05.408Z,101175.97
2022-09-12T02:36:58.236Z,101175.06
2022-09-12T02:39:24.946Z,101176.00
2022-09-12T02:41:52.955Z,101175.06
2022-09-12T02:44:20.301Z,101171.50
2022-09-12T02:46:57.464Z,101176.91
2022-09-12T02:49:24.039Z,101160.72
2022-09-12T02:51:51.066Z,101163.44
2022-09-12T02:54:19.307Z,101164.31
2022-09-12T02:56:46.326Z,101161.63
2022-09-12T02:59:18.131Z,101161.66
2022-09-12T03:02:03.919Z,101166.13
2022-09-12T03:04:49.489Z,101159.84
2022-09-12T03:07:43.875Z,101159.88
2022-09-12T03:10:17.166Z,101156.25
2022-09-12T03:13:00.840Z,101156.22
2022-09-12T03:15:58.378Z,101158.03
2022-09-12T03:18:50.240Z,101153.56
2022-09-12T03:21:25.921Z,101157.13
2022-09-12T03:24:13.110Z,101154.47
2022-09-12T03:26:48.982Z,101150.88
2022-09-12T03:29:18.618Z,101153.56
2022-09-12T03:31:56.695Z,101152.66
2022-09-12T03:34:27.653Z,101143.66
2022-09-12T03:36:58.249Z,101146.38
2022-09-12T03:39:26.360Z,101150.91
2022-09-12T03:41:54.036Z,101154.50
2022-09-12T03:44:20.589Z,101155.41
2022-09-12T03:46:47.240Z,101165.31
2022-09-12T03:49:13.901Z,101168.00
2022-09-12T03:51:43.587Z,101161.72
2022-09-12T03:54:10.728Z,101161.72
2022-09-12T03:56:40.341Z,101152.72
2022-09-12T03:59:07.037Z,101157.22
2022-09-12T04:01:34.544Z,101156.31
2022-09-12T04:04:01.640Z,101154.50
2022-09-12T04:06:31.105Z,101156.31
2022-09-12T04:08:58.482Z,101157.22
2022-09-12T04:11:25.056Z,101156.34
2022-09-12T04:13:52.023Z,101156.31
2022-09-12T04:16:19.351Z,101158.13
2022-09-12T04:18:46.769Z,101159.94
2022-09-12T04:21:19.247Z,101172.53
2022-09-12T04:23:45.984Z,101163.53
2022-09-12T04:26:13.677Z,101166.25
2022-09-12T04:28:41.270Z,101170.72
2022-09-12T04:31:12.209Z,101170.75
2022-09-12T04:33:39.540Z,101169.84
2022-09-12T04:36:11.713Z,101165.31
2022-09-12T04:38:38.953Z,101160.84
2022-09-12T04:41:13.760Z,101168.97
2022-09-12T04:43:41.145Z,101165.34
2022-09-12T04:46:09.024Z,101167.13
2022-09-12T04:48:42.169Z,101169.84
2022-09-12T04:51:15.707Z,101165.34
2022-09-12T04:53:43.458Z,101165.34
2022-09-12T04:56:11.437Z,101169.84
2022-09-12T04:58:38.640Z,101160.81
2022-09-12T05:01:11.206Z,101168.94
2022-09-12T05:03:39.526Z,101170.72
2022-09-12T05:06:15.501Z,101172.53
2022-09-12T05:08:43.063Z,101166.22
2022-09-12T05:11:15.424Z,101165.34
2022-09-12T05:13:44.629Z,101177.94
2022-09-12T05:16:16.591Z,101164.44
2022-09-12T05:18:44.467Z,101174.34
2022-09-12T05:21:18.076Z,101178.84
2022-09-12T05:23:44.901Z,101178.84
2022-09-12T05:26:14.924Z,101181.53
2022-09-12T05:28:42.588Z,101174.34
2022-09-12T05:31:15.749Z,101177.03
2022-09-12T05:33:45.471Z,101173.41
2022-09-12T05:36:17.753Z,101172.53
2022-09-12T05:38:45.130Z,101177.94
2022-09-12T05:41:20.024Z,101177.06
2022-09-12T05:44:01.171Z,101181.56
2022-09-12T05:46:30.164Z,101173.44
2022-09-12T05:48:58.228Z,101177.94
2022-09-12T05:51:29.051Z,101183.34
2022-09-12T05:53:57.814Z,101177.03
2022-09-12T05:56:27.283Z,101174.34
2022-09-12T05:59:05.084Z,101178.84
2022-09-12T06:01:33.884Z,101174.31
2022-09-12T06:04:03.553Z,101184.22
2022-09-12T06:06:31.880Z,101182.41
2022-09-12T06:09:00.423Z,101180.63
2022-09-12T06:11:29.007Z,101187.81
2022-09-12T06:13:56.969Z,101185.13
2022-09-12T06:16:26.639Z,101184.19
2022-09-12T06:18:56.788Z,101186.88
2022-09-12T06:21:26.436Z,101184.16
2022-09-12T06:23:58.696Z,101185.03
2022-09-12T06:26:26.137Z,101181.44
2022-09-12T06:28:54.803Z,101181.41
2022-09-12T06:31:25.150Z,101183.13
2022-09-12T06:33:54.133Z,101175.88
2022-09-12T06:36:28.341Z,101174.94
2022-09-12T06:39:01.009Z,101168.59
2022-09-12T06:41:29.158Z,101169.44
2022-09-12T06:43:55.929Z,101165.78
2022-09-12T06:46:22.621Z,101168.41
2022-09-12T06:48:49.339Z,101166.50
2022-09-12T06:51:17.800Z,101155.59
2022-09-12T06:53:45.847Z,101165.44
2022-09-12T06:56:17.025Z,101158.13
2022-09-12T06:58:43.874Z,101167.13
2022-09-12T07:01:15.621Z,101158.06
2022-09-12T07:03:44.134Z,101163.38
2022-09-12T07:06:15.848Z,101169.56
2022-09-12T07:08:42.587Z,101164.00
2022-09-12T07:11:09.080Z,101163.91
2022-09-12T07:13:35.677Z,101172.84
2022-09-12T07:16:03.970Z,101170.94
2022-09-12T07:18:30.997Z,101170.84
2022-09-12T07:21:00.781Z,101176.22
2022-09-12T07:23:29.128Z,101168.03
2022-09-12T07:26:00.742Z,101176.97
2022-09-12T07:28:30.522Z,101170.50
2022-09-12T07:30:57.998Z,101170.25
2022-09-12T07:33:29.772Z,101166.59
2022-09-12T07:36:01.180Z,101170.09
2022-09-12T07:38:28.553Z,101169.09
2022-09-12T07:40:55.224Z,101167.09
2022-09-12T07:43:21.737Z,101170.56
2022-09-12T07:45:48.339Z,101169.47
2022-09-12T07:48:14.911Z,101170.97
2022-09-12T07:50:45.059Z,101175.22
2022-09-12T07:53:12.021Z,101176.00
2022-09-12T07:55:38.584Z,101174.09
2022-09-12T07:58:05.093Z,101168.41
2022-09-12T08:00:35.828Z,101171.66
2022-09-12T08:03:07.183Z,101174.09
2022-09-12T08:05:33.981Z,101182.69
2022-09-12T08:08:00.462Z,101170.63
2022-09-12T08:10:27.056Z,101175.53
2022-09-12T08:12:53.628Z,101175.09
2022-09-12T08:15:20.260Z,101172.91
2022-09-12T08:17:46.813Z,101169.59
2022-09-12T08:20:13.796Z,101166.19
2022-09-12T08:22:40.690Z,101172.34
2022-09-12T08:25:08.650Z,101172.69
2022-09-12T08:27:35.186Z,101176.91
2022-09-12T08:30:02.012Z,101175.31
2022-09-12T08:32:28.589Z,101173.50
2022-09-12T08:34:55.150Z,101171.34
2022-09-12T08:37:21.681Z,101176.44
2022-09-12T08:39:48.281Z,101166.78
2022-09-12T08:42:31.858Z,101160.41
2022-09-12T08:45:03.665Z,101165.19
2022-09-12T08:47:39.390Z,101175.44
2022-09-12T08:50:09.703Z,101170.38
2022-09-12T08:52:52.012Z,101163.38
2022-09-12T08:55:40.613Z,101171.13
2022-09-12T08:58:20.775Z,101172.50
2022-09-12T09:01:15.359Z,101170.25
2022-09-12T09:04:03.846Z,101165.13
2022-09-12T09:06:47.325Z,101156.63
2022-09-12T09:09:37.210Z,101162.50
2022-09-12T09:12:19.630Z,101143.09
2022-09-12T09:14:55.562Z,101153.69
2022-09-12T09:17:32.389Z,101150.81
2022-09-12T09:20:23.551Z,101142.19
2022-09-12T09:22:55.120Z,101136.81
2022-09-12T09:25:55.716Z,101143.03
2022-09-12T09:28:31.777Z,101138.53
2022-09-12T09:30:58.387Z,101129.84
2022-09-12T09:33:33.987Z,101134.13
2022-09-12T09:36:38.847Z,101129.34
2022-09-12T09:39:23.922Z,101121.78
2022-09-12T09:42:09.324Z,101124.34
2022-09-12T09:44:36.498Z,101129.00
2022-09-12T09:47:03.399Z,101123.69
2022-09-12T09:49:33.377Z,101119.84
2022-09-12T09:52:01.058Z,101115.91
2022-09-12T09:54:40.093Z,101119.03
2022-09-12T09:57:35.117Z,101120.69
2022-09-12T10:00:27.089Z,101115.94
2022-09-12T10:03:18.026Z,101120.69
2022-09-12T10:05:52.449Z,101104.94
2022-09-12T10:08:23.906Z,101104.94
2022-09-12T10:10:55.673Z,101099.13
2022-09-12T10:13:32.205Z,101104.47
2022-09-12T10:16:02.160Z,101112.25
2022-09-12T10:18:36.403Z,101105.47
2022-09-12T10:21:14.477Z,101105.31
2022-09-12T10:23:42.587Z,101101.53
2022-09-12T10:26:13.009Z,101102.22
2022-09-12T10:28:51.921Z,101103.31
2022-09-12T10:31:29.398Z,101103.47
2022-09-12T10:33:59.684Z,101096.03
2022-09-12T10:36:36.582Z,101092.84
2022-09-12T10:39:03.738Z,101091.16
2022-09-12T10:41:41.363Z,101092.34
2022-09-12T10:44:16.122Z,101080.16
2022-09-12T10:46:42.755Z,101084.44
2022-09-12T10:49:22.869Z,101087.88
2022-09-12T10:51:50.400Z,101079.50
2022-09-12T10:54:19.701Z,101076.59
2022-09-12T10:57:01.203Z,101077.72
2022-09-12T10:59:56.773Z,101080.31
2022-09-12T11:02:52.444Z,101074.00
2022-09-12T11:05:36.703Z,101074.69
2022-09-12T11:08:29.654Z,101072.56
2022-09-12T11:11:14.312Z,101059.16
2022-09-12T11:14:06.692Z,101058.97
2022-09-12T11:16:47.386Z,101056.91
2022-09-12T11:19:47.815Z,101060.31
2022-09-12T11:22:31.895Z,101052.66
2022-09-12T11:25:07.834Z,101049.56
2022-09-12T11:27:52.963Z,101045.81
2022-09-12T11:30:19.643Z,101053.84
2022-09-12T11:33:24.572Z,101051.19
2022-09-12T11:35:55.406Z,101038.78
2022-09-12T11:38:50.871Z,101041.31
2022-09-12T11:41:20.645Z,101040.28
2022-09-12T11:44:00.108Z,101045.34
2022-09-12T11:46:38.529Z,101040.34
2022-09-12T11:49:14.233Z,101036.97
2022-09-12T11:51:59.340Z,101032.09
2022-09-12T11:54:53.529Z,101034.31
2022-09-12T11:57:33.768Z,101031.47
2022-09-12T12:00:20.348Z,101030.25
2022-09-12T12:03:07.075Z,101031.13
2022-09-12T12:05:54.929Z,101035.97
2022-09-12T12:08:24.529Z,101030.56
2022-09-12T12:10:56.287Z,101029.75
2022-09-12T12:13:46.584Z,101029.09
2022-09-12T12:16:27.084Z,101026.56
2022-09-12T12:19:02.041Z,101023.78
2022-09-12T12:21:29.214Z,101024.19
2022-09-12T12:24:11.500Z,101027.25
2022-09-12T12:26:41.288Z,101020.63
2022-09-12T12:29:32.781Z,101029.69
2022-09-12T12:31:59.296Z,101022.56
2022-09-12T12:34:30.284Z,101022.31
2022-09-12T12:36:57.917Z,101019.31
2022-09-12T12:39:33.477Z,101021.13
2022-09-12T12:42:00.685Z,101011.84
2022-09-12T12:44:48.047Z,101020.53
2022-09-12T12:47:16.097Z,101010.00
2022-09-12T12:49:42.696Z,101006.22
2022-09-12T12:52:17.453Z,101008.00
2022-09-12T12:54:43.954Z,101000.69
2022-09-12T12:57:18.251Z,101001.25
2022-09-12T13:00:00.133Z,100991.94
2022-09-12T13:02:38.362Z,100994.53
2022-09-12T13:05:17.341Z,100992.91
2022-09-12T13:07:47.977Z,100990.81
2022-09-12T13:10:24.667Z,100986.03
2022-09-12T13:12:53.157Z,100981.13
2022-09-12T13:15:38.161Z,100974.09
2022-09-12T13:18:13.498Z,100978.63
2022-09-12T13:20:50.442Z,100973.41
2022-09-12T13:23:29.216Z,100966.03
2022-09-12T13:25:58.289Z,100961.78
2022-09-12T13:28:26.342Z,100959.28
2022-09-12T13:30:59.027Z,100954.31
2022-09-12T13:33:35.205Z,100948.28
2022-09-12T13:36:41.226Z,100938.84
2022-09-12T13:39:39.840Z,100936.00
2022-09-12T13:42:24.464Z,100931.22
2022-09-12T13:45:04.203Z,100924.75
2022-09-12T13:47:35.985Z,100922.50
2022-09-12T13:50:05.809Z,100926.25
2022-09-12T13:52:35.195Z,100915.03
2022-09-12T13:55:06.492Z,100921.63
2022-09-12T13:57:38.756Z,100905.06
2022-09-12T14:00:19.496Z,100910.34
2022-09-12T14:02:48.079Z,100899.84
2022-09-12T14:05:22.083Z,100891.88
2022-09-12T14:07:56.087Z,100897.63
2022-09-12T14:10:33.756Z,100890.94
2022-09-12T14:13:03.233Z,100890.41
2022-09-12T14:15:35.894Z,100890.34
2022-09-12T14:18:04.733Z,100890.72
2022-09-12T14:20:36.114Z,100882.16
2022-09-12T14:23:14.552Z,100886.41
2022-09-12T14:25:44.328Z,100884.72
2022-09-12T14:28:14.546Z,100888.91
2022-09-12T14:30:41.301Z,100886.25
2022-09-12T14:33:11.107Z,100870.03
2022-09-12T14:35:43.531Z,100869.50
2022-09-12T14:38:16.399Z,100871.66
2022-09-12T14:40:48.595Z,100865.94
2022-09-12T14:43:23.243Z,100868.88
2022-09-12T14:45:56.546Z,100863.69
2022-09-12T14:48:23.135Z,100865.59
2022-09-12T14:50:53.212Z,100857.22
2022-09-12T14:53:24.724Z,100858.84
2022-09-12T14:56:05.526Z,100853.84
2022-09-12T14:58:32.557Z,100855.81
2022-09-12T15:01:01.272Z,100853.06
2022-09-12T15:03:50.040Z,100851.19
2022-09-12T15:06:37.593Z,100846.47
2022-09-12T15:09:10.576Z,100851.69
2022-09-12T15:11:37.061Z,100854.84
2022-09-12T15:14:12.852Z,100853.06
2022-09-12T15:16:39.480Z,100847.56
2022-09-12T15:19:07.064Z,100843.00
2022-09-12T15:21:33.976Z,100838.66
2022-09-12T15:24:00.833Z,100828.97
2022-09-12T15:26:30.438Z,100823.47
2022-09-12T15:28:57.620Z,100827.38
2022-09-12T15:31:26.023Z,100827.94
2022-09-12T15:33:54.250Z,100826.34
2022-09-12T15:36:22.910Z,100826.88
2022-09-12T15:38:50.420Z,100824.31
2022-09-12T15:41:29.913Z,100819.97
2022-09-12T15:43:58.092Z,100832.25
2022-09-12T15:46:25.906Z,100826.00
2022-09-12T15:48:52.497Z,100818.72
2022-09-12T15:51:21.329Z,100822.09
2022-09-12T15:53:49.618Z,100817.31
2022-09-12T15:56:20.984Z,100818.56
2022-09-12T15:58:58.385Z,100815.91
2022-09-12T16:01:27.066Z,100817.81
2022-09-12T16:03:53.661Z,100810.53
2022-09-12T16:06:20.285Z,100805.41
2022-09-12T16:08:46.952Z,100803.59
2022-09-12T16:11:24.967Z,100799.34
2022-09-12T16:13:53.706Z,100796.06
2022-09-12T16:16:23.325Z,100796.31
2022-09-12T16:18:50.182Z,100799.16
2022-09-12T16:21:16.807Z,100795.59
2022-09-12T16:23:44.673Z,100795.75
2022-09-12T16:26:11.408Z,100790.44
2022-09-12T16:28:38.041Z,100788.56
2022-09-12T16:31:06.575Z,100790.59
2022-09-12T16:33:33.644Z,100783.50
2022-09-12T16:36:06.997Z,100794.69
2022-09-12T16:38:34.562Z,100783.84
2022-09-12T16:41:03.076Z,100779.41
2022-09-12T16:43:31.781Z,100774.16
2022-09-12T16:46:03.978Z,100766.97
2022-09-12T16:48:31.240Z,100772.81
2022-09-12T16:50:58.945Z,100768.72
2022-09-12T16:53:25.451Z,100772.91
2022-09-12T16:55:51.970Z,100763.41
2022-09-12T16:58:18.525Z,100761.88
2022-09-12T17:00:45.486Z,100766.09
2022-09-12T17:03:12.667Z,100766.56
2022-09-12T17:05:39.369Z,100768.84
2022-09-12T17:08:05.956Z,100766.31
2022-09-12T17:10:32.673Z,100764.06
2022-09-12T17:13:02.309Z,100762.78
2022-09-12T17:15:28.841Z,100756.94
2022-09-12T17:17:55.501Z,100753.63
2022-09-12T17:20:22.388Z,100750.56
2022-09-12T17:22:49.246Z,100744.97
2022-09-12T17:25:15.805Z,100747.47
2022-09-12T17:27:42.959Z,100738.63
2022-09-12T17:30:09.921Z,100738.06
2022-09-12T17:32:36.481Z,100729.31
2022-09-12T17:35:04.115Z,100736.88
2022-09-12T17:37:30.881Z,100729.78
2022-09-12T17:39:57.738Z,100726.34
2022-09-12T17:42:24.313Z,100730.22
2022-09-12T17:44:50.825Z,100728.72
2022-09-12T17:47:17.549Z,100724.63
2022-09-12T17:49:44.846Z,100725.84
2022-09-12T17:52:11.904Z,100726.28
2022-09-12T17:54:39.708Z,100727.47
2022-09-12T17:57:09.669Z,100723.28
2022-09-12T17:59:36.264Z,100727.13
2022-09-12T18:02:16.225Z,100736.47
2022-09-12T18:04:48.428Z,100733.88
2022-09-12T18:07:18.148Z,100726.75
2022-09-12T18:09:47.667Z,100720.59
2022-09-12T18:12:15.440Z,100719.03
2022-09-12T18:14:42.438Z,100717.59
2022-09-12T18:17:11.467Z,100721.56
2022-09-12T18:19:38.205Z,100729.34
2022-09-12T18:22:11.482Z,100733.44
2022-09-12T18:24:42.205Z,100729.06
2022-09-12T18:27:08.821Z,100722.97
2022-09-12T18:29:35.349Z,100723.13
2022-09-12T18:32:02.166Z,100729.78
2022-09-12T18:34:28.843Z,100730.94
2022-09-12T18:36:55.452Z,100724.75
2022-09-12T18:39:26.880Z,100724.94
2022-09-12T18:41:54.337Z,100714.38
2022-09-12T18:44:20.852Z,100718.41
2022-09-12T18:46:47.397Z,100714.13
2022-09-12T18:49:14.153Z,100713.41
2022-09-12T18:51:42.122Z,100709.03
2022-09-12T18:54:13.108Z,100711.09
2022-09-12T18:56:43.379Z,100711.31
2022-09-12T18:59:12.709Z,100702.53
2022-09-12T19:01:39.791Z,100710.03
2022-09-12T19:04:08.124Z,100706.56
2022-09-12T19:06:38.130Z,100702.22
2022-09-12T19:09:09.092Z,100706.09
2022-09-12T19:11:48.512Z,100703.59
2022-09-12T19:14:19.911Z,100701.09
2022-09-12T19:16:46.553Z,100704.84
2022-09-12T19:19:13.487Z,100700.50
2022-09-12T19:21:40.081Z,100689.69
2022-09-12T19:24:11.032Z,100681.72
2022-09-12T19:26:39.484Z,100676.63
2022-09-12T19:29:07.290Z,100690.53
2022-09-12T19:31:34.425Z,100684.28
2022-09-12T19:34:06.309Z,100681.81
2022-09-12T19:36:44.789Z,100682.88
2022-09-12T19:39:12.838Z,100669.25
2022-09-12T19:41:39.462Z,100669.25
2022-09-12T19:44:06.044Z,100659.44
2022-09-12T19:46:32.825Z,100662.34
2022-09-12T19:48:59.635Z,100660.78
2022-09-12T19:51:26.370Z,100667.44
2022-09-12T19:53:53.442Z,100666.69
2022-09-12T19:56:20.647Z,100669.59
2022-09-12T19:58:53.428Z,100663.28
2022-09-12T20:01:30.369Z,100660.69
2022-09-12T20:03:58.407Z,100656.28
2022-09-12T20:06:49.155Z,100657.34
2022-09-12T20:09:15.916Z,100656.50
2022-09-12T20:11:42.495Z,100652.94
2022-09-12T20:14:09.472Z,100644.81
2022-09-12T20:16:36.110Z,100641.31
2022-09-12T20:19:06.945Z,100640.47
2022-09-12T20:21:35.886Z,100636.97
2022-09-12T20:24:09.785Z,100643.41
2022-09-12T20:26:36.510Z,100643.47
2022-09-12T20:29:04.714Z,100640.81
2022-09-12T20:31:32.195Z,100632.81
2022-09-12T20:33:59.489Z,100631.97
2022-09-12T20:36:26.157Z,100623.84
2022-09-12T20:38:59.807Z,100634.88
2022-09-12T20:41:29.306Z,100630.41
2022-09-12T20:43:57.138Z,100626.06
2022-09-12T20:46:25.942Z,100628.94
2022-09-12T20:48:52.666Z,100624.63
2022-09-12T20:51:26.438Z,100632.94
2022-09-12T20:53:54.512Z,100620.31
2022-09-12T20:56:22.262Z,100613.19
2022-09-12T20:58:48.958Z,100609.53
2022-09-12T21:01:16.549Z,100605.13
2022-09-12T21:03:44.297Z,100603.44
2022-09-12T21:06:12.667Z,100590.94
2022-09-12T21:08:39.445Z,100589.25
2022-09-12T21:11:06.686Z,100593.91
2022-09-12T21:13:33.202Z,100582.19
2022-09-12T21:16:04.872Z,100581.44
2022-09-12T21:18:32.925Z,100566.06
2022-09-12T21:20:59.509Z,100568.81
2022-09-12T21:23:27.508Z,100566.06
2022-09-12T21:25:54.742Z,100549.69
2022-09-12T21:28:22.074Z,100543.28
2022-09-12T21:30:49.868Z,100537.69
2022-09-12T21:33:17.010Z,100533.09
2022-09-12T21:35:44.537Z,100536.63
2022-09-12T21:38:11.549Z,100538.53
2022-09-12T21:40:38.292Z,100543.06
2022-09-12T21:43:07.211Z,100543.00
2022-09-12T21:45:37.253Z,100538.41
2022-09-12T21:48:04.142Z,100535.63
2022-09-12T21:50:30.833Z,100531.03
2022-09-12T21:52:57.391Z,100533.75
2022-09-12T21:55:27.175Z,100535.63
2022-09-12T21:57:57.234Z,100535.75
2022-09-12T22:00:24.501Z,100535.81
2022-09-12T22:02:51.040Z,100535.84
2022-09-12T22:05:20.313Z,100528.63
2022-09-12T22:07:47.117Z,100525.00
2022-09-12T22:10:13.829Z,100523.25
2022-09-12T22:12:45.337Z,100532.41
2022-09-12T22:15:38.990Z,100526.16
2022-09-12T22:18:00.025Z,100520.75
2022-09-12T22:20:26.597Z,100523.47
2022-09-12T22:23:11.849Z,100520.75
2022-09-12T22:25:38.425Z,100523.47
2022-09-12T22:28:05.063Z,100518.03
2022-09-12T22:30:48.364Z,100510.81
2022-09-12T22:33:15.114Z,100503.56
2022-09-12T22:35:42.322Z,100499.06
2022-09-12T22:38:09.167Z,100497.28
2022-09-12T22:40:36.971Z,100497.28
2022-09-12T22:43:03.518Z,100490.97
2022-09-12T22:45:30.313Z,100489.16
2022-09-12T22:48:00.540Z,100491.91
2022-09-12T22:50:27.708Z,100496.53
2022-09-12T22:52:54.240Z,100492.94
2022-09-12T22:55:20.901Z,100491.16
2022-09-12T22:57:47.654Z,100481.28
2022-09-12T23:00:14.661Z,100482.22
2022-09-12T23:02:41.349Z,100473.25
2022-09-12T23:05:08.209Z,100476.09
2022-09-12T23:07:34.843Z,100471.47
2022-09-12T23:10:01.553Z,100476.03
2022-09-12T23:12:28.201Z,100474.13
2022-09-12T23:14:54.739Z,100467.81
2022-09-12T23:17:21.282Z,100461.44
2022-09-12T23:19:48.385Z,100464.16
2022-09-12T23:22:14.966Z,100459.63
2022-09-12T23:24:45.187Z,100458.72
2022-09-12T23:27:11.805Z,100459.59
2022-09-12T23:29:38.326Z,100455.03
2022-09-12T23:32:05.239Z,100449.59
2022-09-12T23:34:33.507Z,100446.81
2022-09-12T23:37:00.139Z,100445.03
2022-09-12T23:39:26.758Z,100442.25
2022-09-12T23:41:53.317Z,100440.47
2022-09-12T23:44:21.044Z,100437.75
2022-09-12T23:46:47.614Z,100440.47
2022-09-12T23:49:14.290Z,100443.19
2022-09-12T23:51:40.882Z,100444.16
2022-09-12T23:54:07.549Z,100449.59
2022-09-12T23:56:34.222Z,100436.91
2022-09-12T23:59:00.777Z,100431.47
